Latest Weather Observations for Georgetown Airport

IDQ60801

Issued at 3:05 pm EST Friday 25 April 2014 (issued every 30 minutes, with the page automatically refreshed every 10 minutes)

About weather observations | Map of weather stations | Latest weather observations for QLD | Other Formats
Station Details ID: 030124 Name: GEORGETOWN AIRPORT Lat: -18.30 Lon: 143.53 Height: 301.77 m
Data from the previous 72 hours. | See also: Recent months at Georgetown Airport
Date/Time
EST
Temp
°C
App
Temp
°C
Dew
Point
Rel
Hum
%
Delta-T
°C
Wind Press
QNH
hPa
Press
MSL
hPa
Rain
since 9 am
mm
Dir
 
Spd
km/h
Gust
km/h
Spd
kts
Gust
kts
25/03:00pm 32.1 32.1 19.0 45 8.7 E 17 28 9 15 1010.4 1008.6 0.0
25/02:30pm 31.3 31.2 19.6 49 7.8 ENE 19 26 10 14 1010.8 - 0.0
25/02:00pm 30.5 30.6 19.2 51 7.4 E 17 30 9 16 1011.3 - 0.0
25/01:30pm 30.8 30.5 19.5 51 7.5 NE 20 28 11 15 1011.7 - 0.0
25/01:00pm 30.4 30.3 18.8 50 7.6 E 17 24 9 13 1012.4 - 0.0
25/12:30pm 30.2 29.7 19.2 51 7.2 E 20 30 11 16 1012.9 - 0.0
25/12:00pm 29.6 29.8 19.3 54 6.8 E 17 28 9 15 1013.2 1011.4 0.0
25/11:30am 29.2 28.7 19.2 54 6.6 NE 20 28 11 15 1013.6 - 0.0
25/11:00am 28.5 28.8 19.7 59 5.8 E 17 26 9 14 1014.0 - 0.0
25/10:30am 27.6 27.6 19.7 62 5.2 ENE 19 30 10 16 1014.3 - 0.0
25/10:00am 28.0 27.9 20.0 61 5.3 ENE 20 30 11 16 1014.3 - 0.0
25/09:30am 27.2 27.4 19.3 62 5.2 E 17 26 9 14 1014.5 - 0.0
25/09:00am 26.1 27.6 19.7 68 4.2 E 11 20 6 11 1014.5 1012.7 0.0
25/08:30am 25.3 26.4 19.7 71 3.7 ESE 13 20 7 11 1014.2 - 0.0
25/08:00am 24.5 26.5 20.0 76 2.9 ESE 9 15 5 8 1013.9 - 0.0
25/07:30am 23.5 25.9 20.0 81 2.3 SSE 7 11 4 6 1013.7 - 0.0
25/07:00am 22.6 26.2 19.8 84 1.8 CALM 0 0 0 0 1013.5 - 0.0
25/06:30am 23.0 25.1 19.4 80 2.3 ESE 7 9 4 5 1012.9 - 0.0
25/06:00am 23.1 25.3 19.5 80 2.3 ESE 7 13 4 7 1012.6 1010.8 0.0
25/05:30am 22.9 24.6 19.3 80 2.3 SE 9 11 5 6 1012.2 - 0.0
25/05:00am 22.9 25.0 19.3 80 2.3 SE 7 11 4 6 1012.2 - 0.0
25/04:30am 22.8 25.2 19.6 82 2.1 SE 6 9 3 5 1012.0 - 0.0
25/04:00am 23.1 26.6 19.5 80 2.3 CALM 0 0 0 0 1012.0 - 0.0
25/03:30am 23.2 25.4 19.1 78 2.6 ESE 6 9 3 5 1011.9 - 0.0
25/03:00am 23.4 25.5 19.3 78 2.6 ESE 7 11 4 6 1012.0 1010.2 0.0
25/02:30am 23.5 25.8 19.4 78 2.7 SE 6 7 3 4 1012.2 - 0.0
25/02:00am 23.6 26.9 19.1 76 2.9 CALM 0 0 0 0 1012.4 - 0.0
25/01:30am 24.1 26.7 19.2 74 3.2 ESE 4 9 2 5 1012.5 - 0.0
25/01:00am 24.2 25.8 19.1 73 3.3 ESE 9 13 5 7 1012.7 - 0.0
25/12:30am 24.3 25.9 19.1 73 3.4 E 9 13 5 7 1012.9 - 0.0
25/12:00am 24.6 25.8 19.0 71 3.6 E 11 19 6 10 1013.3 1011.5 0.0
 
Date/Time
EST
Temp
°C
App
Temp
°C
Dew
Point
Rel
Hum
%
Delta-T
°C
Wind Press
QNH
hPa
Press
MSL
hPa
Rain
since 9 am
mm
Dir
 
Spd
km/h
Gust
km/h
Spd
kts
Gust
kts
24/11:30pm 24.7 25.4 18.9 70 3.7 E 13 19 7 10 1013.3 - 0.0
24/11:00pm 25.1 26.3 19.0 69 3.9 E 11 15 6 8 1013.8 - 0.0
24/10:30pm 25.0 26.4 19.6 72 3.5 E 11 17 6 9 1014.0 - 0.0
24/10:00pm 25.3 27.6 19.9 72 3.5 NE 7 9 4 5 1014.0 - 0.0
24/09:30pm 26.1 27.9 19.5 67 4.3 E 9 13 5 7 1013.8 - 0.0
24/09:00pm 26.5 27.3 19.1 64 4.8 ESE 13 22 7 12 1013.5 1011.7 0.0
24/08:30pm 26.4 28.1 19.3 65 4.6 ESE 9 15 5 8 1013.4 - 0.0
24/08:00pm 26.2 28.1 19.8 68 4.2 E 9 15 5 8 1012.8 - 0.0
24/07:30pm 26.4 28.6 19.5 66 4.5 ESE 7 15 4 8 1012.1 - 0.0
24/07:00pm 26.8 28.7 19.7 65 4.7 ESE 9 13 5 7 1011.8 - 0.0
24/06:30pm 27.1 28.4 19.4 62 5.0 ESE 11 19 6 10 1011.4 - 0.0
24/06:00pm 27.4 28.7 19.2 61 5.4 ESE 11 17 6 9 1011.1 1009.2 0.0
24/05:30pm 27.8 28.7 19.3 60 5.6 E 13 19 7 10 1010.8 - 0.0
24/05:00pm 28.2 29.0 19.1 57 5.9 ESE 13 22 7 12 1010.7 - 0.0
24/04:30pm 28.6 29.6 19.5 58 6.0 ESE 13 20 7 11 1010.6 - 0.0
24/04:00pm 28.7 29.7 20.2 60 5.6 ESE 15 24 8 13 1010.4 - 0.0
24/03:30pm 28.8 29.1 19.7 58 6.0 ESE 17 28 9 15 1010.3 - 0.0
24/03:00pm 28.7 29.3 20.2 60 5.7 ESE 17 26 9 14 1010.5 1008.7 0.0
24/02:30pm 28.7 29.3 20.2 60 5.6 E 17 22 9 12 1010.8 - 0.0
24/02:00pm 28.4 29.5 19.6 59 5.8 E 13 20 7 11 1011.3 - 0.0
24/01:30pm 28.2 28.7 20.0 61 5.4 ESE 17 24 9 13 1011.7 - 0.0
24/01:00pm 27.8 28.2 19.8 61 5.3 ESE 17 26 9 14 1012.0 - 0.0
24/12:30pm 27.7 28.1 19.8 62 5.2 ESE 17 24 9 13 1012.4 - 0.0
24/12:00pm 27.4 28.3 20.0 64 4.9 SE 15 20 8 11 1013.0 1011.2 0.0
24/11:30am 26.6 27.9 20.2 68 4.2 ESE 13 20 7 11 1013.3 - 0.0
24/11:00am 26.3 27.7 20.4 70 3.9 ESE 13 20 7 11 1013.7 - 0.0
24/10:30am 25.3 26.1 19.9 72 3.5 E 15 24 8 13 1014.0 - 0.0
24/10:00am 24.7 26.0 20.2 76 3.0 ESE 13 22 7 12 1014.2 - 0.0
24/09:30am 24.0 24.7 19.7 77 2.8 ESE 15 20 8 11 1014.1 - 0.0
24/09:00am 23.6 24.8 19.9 80 2.4 ESE 13 20 7 11 1013.7 1011.9 4.8
24/08:30am 23.2 24.8 20.0 82 2.1 ESE 11 19 6 10 1013.5 - 4.8
24/08:00am 22.9 24.8 19.7 82 2.1 ESE 9 13 5 7 1013.2 - 4.8
24/07:30am 22.6 24.3 19.4 82 2.1 SE 9 15 5 8 1013.1 - 4.8
24/07:00am 22.4 24.7 19.8 85 1.7 SSE 7 11 4 6 1012.9 - 4.8
24/06:30am 22.2 24.6 19.7 86 1.6 SE 6 9 3 5 1012.4 - 4.8
24/06:00am 22.4 24.7 19.9 86 1.6 ESE 7 9 4 5 1012.1 1010.3 4.8
24/05:30am 22.4 24.7 19.9 86 1.6 SE 7 11 4 6 1012.0 - 4.8
24/05:00am 22.3 24.7 20.0 87 1.5 SE 7 11 4 6 1011.8 - 4.8
24/04:30am 22.3 24.3 20.0 87 1.5 ESE 9 11 5 6 1011.7 - 4.8
24/04:00am 22.2 24.3 20.1 88 1.4 SE 9 11 5 6 1011.9 - 4.8
24/03:30am 22.1 24.6 20.2 89 1.2 SE 7 9 4 5 1012.2 - 4.8
24/03:00am 22.0 24.4 20.1 89 1.2 SE 7 9 4 5 1012.1 1010.3 4.8
24/02:30am 21.9 24.4 20.2 90 1.1 SE 7 13 4 7 1012.3 - 4.8
24/02:00am 21.9 24.4 20.2 90 1.1 SE 7 9 4 5 1012.6 - 4.8
24/01:30am 22.0 24.4 20.1 89 1.2 SE 7 9 4 5 1013.0 - 4.8
24/01:00am 22.2 24.7 20.3 89 1.2 SE 7 11 4 6 1013.6 - 4.8
24/12:30am 22.3 24.6 20.6 90 1.1 SE 9 13 5 7 1013.8 - 4.8
24/12:00am 22.2 25.2 20.8 92 0.9 ESE 6 9 3 5 1014.1 1012.3 4.8
 
Date/Time
EST
Temp
°C
App
Temp
°C
Dew
Point
Rel
Hum
%
Delta-T
°C
Wind Press
QNH
hPa
Press
MSL
hPa
Rain
since 9 am
mm
Dir
 
Spd
km/h
Gust
km/h
Spd
kts
Gust
kts
23/11:30pm 22.0 25.0 20.8 93 0.8 SE 6 9 3 5 1014.2 - 4.8
23/11:00pm 21.9 24.7 20.9 94 0.7 SSE 7 11 4 6 1014.6 - 4.8
23/10:30pm 21.7 24.5 20.9 95 0.5 S 7 9 4 5 1014.8 - 4.8
23/10:00pm 21.9 25.4 21.1 95 0.5 SSE 4 7 2 4 1014.9 - 4.8
23/09:30pm 22.0 24.9 21.0 94 0.7 SSE 7 11 4 6 1015.0 - 4.8
23/09:00pm 22.2 25.5 21.4 95 0.5 SSE 6 9 3 5 1014.9 1013.1 4.8
23/08:30pm 22.3 25.0 21.3 94 0.7 S 9 13 5 7 1014.6 - 4.4
23/08:00pm 22.4 24.6 21.2 93 0.8 S 11 15 6 8 1014.2 - 4.4
23/07:30pm 22.9 26.0 22.1 95 0.5 S 9 13 5 7 1014.0 - 4.2
23/07:00pm 22.9 26.5 22.1 95 0.5 SSW 6 7 3 4 1013.9 - 4.0
23/06:30pm 22.9 26.5 22.1 95 0.5 SSE 6 9 3 5 1013.9 - 3.8
23/06:00pm 22.9 26.3 21.7 93 0.8 SSW 6 9 3 5 1013.9 1012.1 3.6
23/05:30pm 23.2 27.3 21.6 91 1.1 SSW 2 6 1 3 1013.6 - 2.8
23/05:00pm 23.1 25.9 21.5 91 1.1 SSW 9 13 5 7 1013.1 - 2.4
23/04:30pm 23.5 26.3 21.6 89 1.3 SW 9 11 5 6 1013.1 - 2.2
23/04:00pm 23.8 26.8 21.9 89 1.3 SW 9 11 5 6 1013.0 - 1.6
23/03:30pm 24.8 28.2 21.7 83 2.1 SW 6 9 3 5 1012.8 - 1.2
23/03:00pm 27.3 29.6 19.9 64 4.9 ENE 7 11 4 6 1012.8 1011.0 0.2
23/02:30pm 27.5 28.9 19.6 62 5.2 ENE 11 19 6 10 1012.7 - 0.2
23/02:00pm 27.8 29.9 19.3 60 5.6 E 7 13 4 7 1013.0 - 0.2
23/01:30pm 27.3 29.7 20.1 64 4.8 SE 7 11 4 6 1013.4 - 0.2
23/01:00pm 26.1 27.7 19.2 65 4.5 ESE 9 15 5 8 1013.8 - 0.2
23/12:30pm 26.2 27.5 19.3 65 4.5 E 11 15 6 8 1014.1 - 0.2
23/12:00pm 26.1 27.3 19.0 65 4.6 E 11 19 6 10 1014.5 1012.7 0.0
23/11:30am 25.9 27.8 19.8 69 4.0 ESE 9 15 5 8 1014.9 - 0.0
23/11:00am 25.1 27.4 19.9 73 3.4 ESE 7 11 4 6 1015.2 - 0.0
23/10:30am 25.5 27.6 18.9 67 4.3 SE 6 9 3 5 1015.5 - 0.0
23/10:00am 25.6 26.5 18.5 65 4.6 E 11 15 6 8 1015.4 - 0.0
23/09:30am 25.8 27.2 18.7 65 4.6 ESE 9 15 5 8 1015.2 - 0.0
23/09:00am 24.9 26.6 19.3 71 3.6 ESE 9 13 5 7 1014.9 1013.1 0.6
23/08:30am 24.3 25.3 18.7 71 3.6 ESE 11 17 6 9 1014.8 - 0.6
23/08:00am 23.4 23.9 18.3 73 3.2 ESE 13 20 7 11 1014.6 - 0.6
23/07:30am 23.2 25.0 18.3 74 3.1 SE 6 9 3 5 1014.5 - 0.6
23/07:00am 22.8 24.3 18.1 75 3.0 ESE 7 13 4 7 1014.0 - 0.6
23/06:30am 22.6 23.9 18.4 77 2.7 ESE 9 17 5 9 1013.5 - 0.6
23/06:00am 22.4 23.7 18.4 78 2.5 ESE 9 15 5 8 1012.9 1011.1 0.6
23/05:30am 22.3 24.1 18.7 80 2.3 SE 7 13 4 7 1013.1 - 0.6
23/05:00am 22.1 24.0 18.9 82 2.0 SE 7 13 4 7 1013.2 - 0.6
23/04:30am 22.1 24.2 19.3 84 1.8 ESE 7 13 4 7 1013.3 - 0.6
23/04:00am 21.9 24.2 19.5 86 1.5 ESE 6 11 3 6 1013.2 - 0.6
23/03:30am 21.7 23.9 19.6 88 1.4 SSE 7 9 4 5 1013.5 - 0.6
23/03:00am 22.1 24.1 19.1 83 1.9 SE 7 11 4 6 1013.7 1011.9 0.2
23/02:30am 22.8 23.4 18.6 77 2.7 ESE 13 19 7 10 1013.9 - 0.0
23/02:00am 23.9 24.6 17.9 69 3.8 ESE 11 17 6 9 1014.2 - 0.0
23/01:30am 24.2 25.3 17.9 68 4.0 ESE 9 17 5 9 1014.6 - 0.0
23/01:00am 24.5 25.7 18.2 68 4.0 ESE 9 13 5 7 1015.1 - 0.0
23/12:30am 24.6 25.8 18.3 68 4.0 ESE 9 15 5 8 1015.4 - 0.0
23/12:00am 24.7 26.0 18.4 68 4.0 ESE 9 15 5 8 1015.8 1014.0 0.0
 
Date/Time
EST
Temp
°C
App
Temp
°C
Dew
Point
Rel
Hum
%
Delta-T
°C
Wind Press
QNH
hPa
Press
MSL
hPa
Rain
since 9 am
mm
Dir
 
Spd
km/h
Gust
km/h
Spd
kts
Gust
kts
22/11:30pm 24.9 26.1 18.3 66 4.2 E 9 13 5 7 1016.0 - 0.0
22/11:00pm 25.2 25.7 18.4 66 4.4 E 13 17 7 9 1016.0 - 0.0
22/10:30pm 25.5 26.4 18.4 65 4.6 E 11 19 6 10 1015.8 - 0.0
22/10:00pm 25.8 27.5 18.5 64 4.7 ESE 7 15 4 8 1016.0 - 0.0
22/09:30pm 26.0 26.9 18.4 63 4.9 E 11 17 6 9 1015.8 - 0.0
22/09:00pm 26.2 27.2 18.6 63 4.9 E 11 17 6 9 1015.8 1014.0 0.0
22/08:30pm 26.3 27.7 18.7 63 4.9 E 9 19 5 10 1015.7 - 0.0
22/08:00pm 26.5 27.1 18.6 62 5.1 E 13 20 7 11 1015.3 - 0.0
22/07:30pm 26.5 27.1 18.6 62 5.1 ESE 13 20 7 11 1014.9 - 0.0
22/07:00pm 26.9 27.5 18.7 60 5.3 E 13 20 7 11 1014.5 - 0.0
22/06:30pm 27.0 27.7 18.8 60 5.3 E 13 22 7 12 1014.6 - 0.0
22/06:00pm 27.5 27.4 18.8 59 5.6 E 17 24 9 13 1014.2 1012.4 0.0
22/05:30pm 28.0 27.9 18.7 57 6.0 ENE 17 24 9 13 1013.8 - 0.0
22/05:00pm 29.0 29.2 19.3 55 6.4 ENE 17 24 9 13 1013.5 - 0.0
22/04:30pm 29.1 29.4 18.8 53 6.7 E 15 19 8 10 1013.3 - 0.0
22/04:00pm 29.5 30.1 18.6 52 7.1 E 13 20 7 11 1013.3 - 0.0
22/03:30pm 29.7 30.1 19.1 53 7.0 ENE 15 20 8 11 1013.3 - 0.0

Other Formats:

Comma delimited format used in spreadsheet applications
http://www.bom.gov.au/fwo/IDQ60801/IDQ60801.94274.axf

JavaScript Object Notation format (JSON) in row-major order
http://www.bom.gov.au/fwo/IDQ60801/IDQ60801.94274.json